sensor_id;sensor_type;location;lat;lon;timestamp;temperature;humidity
21646;DHT22;10984;45.712;4.800;2023-04-25T00:02:27;11.10;90.50
21646;DHT22;10984;45.712;4.800;2023-04-25T00:08:29;11.00;99.10
21646;DHT22;10984;45.712;4.800;2023-04-25T00:14:45;11.00;88.00
21646;DHT22;10984;45.712;4.800;2023-04-25T00:21:00;11.00;60.40
21646;DHT22;10984;45.712;4.800;2023-04-25T00:27:40;10.80;86.40
21646;DHT22;10984;45.712;4.800;2023-04-25T00:40:17;10.80;79.70
21646;DHT22;10984;45.712;4.800;2023-04-25T00:43:07;10.90;98.00
21646;DHT22;10984;45.712;4.800;2023-04-25T00:52:23;10.90;46.30
21646;DHT22;10984;45.712;4.800;2023-04-25T00:55:13;11.10;12.20
21646;DHT22;10984;45.712;4.800;2023-04-25T00:58:09;11.10;15.00
21646;DHT22;10984;45.712;4.800;2023-04-25T01:01:05;11.10;26.60
21646;DHT22;10984;45.712;4.800;2023-04-25T01:51:11;11.20;99.90
21646;DHT22;10984;45.712;4.800;2023-04-25T01:57:29;11.30;95.50
21646;DHT22;10984;45.712;4.800;2023-04-25T02:39:11;10.70;99.90
21646;DHT22;10984;45.712;4.800;2023-04-25T02:42:13;10.50;99.90
21646;DHT22;10984;45.712;4.800;2023-04-25T05:46:45;11.00;99.90
21646;DHT22;10984;45.712;4.800;2023-04-25T05:49:10;11.10;99.90
21646;DHT22;10984;45.712;4.800;2023-04-25T05:51:36;11.10;99.90
21646;DHT22;10984;45.712;4.800;2023-04-25T05:54:02;11.10;99.90
21646;DHT22;10984;45.712;4.800;2023-04-25T05:56:27;11.20;99.90
21646;DHT22;10984;45.712;4.800;2023-04-25T05:58:53;11.40;99.90
21646;DHT22;10984;45.712;4.800;2023-04-25T06:01:19;11.40;99.90
21646;DHT22;10984;45.712;4.800;2023-04-25T06:03:44;11.40;95.90
21646;DHT22;10984;45.712;4.800;2023-04-25T06:06:11;11.50;90.10
21646;DHT22;10984;45.712;4.800;2023-04-25T06:08:37;11.50;78.80
21646;DHT22;10984;45.712;4.800;2023-04-25T06:11:04;11.50;99.90
21646;DHT22;10984;45.712;4.800;2023-04-25T06:13:30;11.50;99.90
21646;DHT22;10984;45.712;4.800;2023-04-25T06:15:55;11.60;99.90
21646;DHT22;10984;45.712;4.800;2023-04-25T06:18:21;11.70;99.90
21646;DHT22;10984;45.712;4.800;2023-04-25T06:20:47;11.70;99.90
21646;DHT22;10984;45.712;4.800;2023-04-25T06:23:12;11.80;99.90
21646;DHT22;10984;45.712;4.800;2023-04-25T06:25:38;11.90;98.90
21646;DHT22;10984;45.712;4.800;2023-04-25T06:28:03;12.10;80.60
21646;DHT22;10984;45.712;4.800;2023-04-25T06:30:29;12.20;56.20
21646;DHT22;10984;45.712;4.800;2023-04-25T06:32:55;12.50;45.20
21646;DHT22;10984;45.712;4.800;2023-04-25T06:35:21;12.70;36.30
21646;DHT22;10984;45.712;4.800;2023-04-25T06:37:46;12.90;39.80
21646;DHT22;10984;45.712;4.800;2023-04-25T06:40:12;13.00;1.00
21646;DHT22;10984;45.712;4.800;2023-04-25T06:42:38;13.20;99.90
21646;DHT22;10984;45.712;4.800;2023-04-25T06:45:04;13.20;99.90
21646;DHT22;10984;45.712;4.800;2023-04-25T06:47:29;13.30;99.90
21646;DHT22;10984;45.712;4.800;2023-04-25T06:49:55;13.40;99.90
21646;DHT22;10984;45.712;4.800;2023-04-25T06:52:21;13.40;99.90
21646;DHT22;10984;45.712;4.800;2023-04-25T06:54:47;13.40;99.90
21646;DHT22;10984;45.712;4.800;2023-04-25T06:57:13;13.50;99.90
21646;DHT22;10984;45.712;4.800;2023-04-25T06:59:38;13.60;99.90
21646;DHT22;10984;45.712;4.800;2023-04-25T07:02:04;13.60;99.90
21646;DHT22;10984;45.712;4.800;2023-04-25T07:04:31;13.70;99.90
21646;DHT22;10984;45.712;4.800;2023-04-25T07:06:57;13.60;99.90
21646;DHT22;10984;45.712;4.800;2023-04-25T07:09:22;14.10;99.90
21646;DHT22;10984;45.712;4.800;2023-04-25T07:11:48;14.70;99.90
21646;DHT22;10984;45.712;4.800;2023-04-25T07:14:14;15.30;99.90
21646;DHT22;10984;45.712;4.800;2023-04-25T07:16:40;16.10;99.90
21646;DHT22;10984;45.712;4.800;2023-04-25T07:19:06;16.50;99.90
21646;DHT22;10984;45.712;4.800;2023-04-25T07:21:32;16.90;99.90
21646;DHT22;10984;45.712;4.800;2023-04-25T07:23:58;17.10;99.90
21646;DHT22;10984;45.712;4.800;2023-04-25T07:26:23;17.30;99.90
21646;DHT22;10984;45.712;4.800;2023-04-25T07:28:50;17.20;99.90
21646;DHT22;10984;45.712;4.800;2023-04-25T07:31:17;17.00;99.90
21646;DHT22;10984;45.712;4.800;2023-04-25T07:33:44;16.80;99.90
21646;DHT22;10984;45.712;4.800;2023-04-25T07:36:11;16.60;99.90
21646;DHT22;10984;45.712;4.800;2023-04-25T07:38:38;16.90;99.90
21646;DHT22;10984;45.712;4.800;2023-04-25T07:41:03;16.90;99.90
21646;DHT22;10984;45.712;4.800;2023-04-25T07:43:29;16.80;99.90
21646;DHT22;10984;45.712;4.800;2023-04-25T07:45:56;16.90;99.90
21646;DHT22;10984;45.712;4.800;2023-04-25T07:48:22;16.90;99.90
21646;DHT22;10984;45.712;4.800;2023-04-25T07:50:48;16.70;99.90
21646;DHT22;10984;45.712;4.800;2023-04-25T07:53:14;16.50;99.90
21646;DHT22;10984;45.712;4.800;2023-04-25T07:55:39;16.50;99.90
21646;DHT22;10984;45.712;4.800;2023-04-25T07:58:09;16.30;99.90
21646;DHT22;10984;45.712;4.800;2023-04-25T08:00:35;16.40;99.90
21646;DHT22;10984;45.712;4.800;2023-04-25T08:03:01;16.30;99.90
21646;DHT22;10984;45.712;4.800;2023-04-25T08:05:28;16.30;99.90
21646;DHT22;10984;45.712;4.800;2023-04-25T08:07:53;16.10;99.90
21646;DHT22;10984;45.712;4.800;2023-04-25T08:10:19;15.90;99.90
21646;DHT22;10984;45.712;4.800;2023-04-25T08:12:45;16.00;99.90
21646;DHT22;10984;45.712;4.800;2023-04-25T08:15:11;16.00;99.90
21646;DHT22;10984;45.712;4.800;2023-04-25T08:17:39;15.90;99.90
21646;DHT22;10984;45.712;4.800;2023-04-25T08:20:05;16.00;99.90
21646;DHT22;10984;45.712;4.800;2023-04-25T08:22:31;16.10;99.90
21646;DHT22;10984;45.712;4.800;2023-04-25T08:24:57;16.30;99.90
21646;DHT22;10984;45.712;4.800;2023-04-25T08:27:23;16.50;99.90
21646;DHT22;10984;45.712;4.800;2023-04-25T08:29:49;16.60;99.90
21646;DHT22;10984;45.712;4.800;2023-04-25T08:32:16;16.60;99.90
21646;DHT22;10984;45.712;4.800;2023-04-25T08:34:42;16.80;99.90
21646;DHT22;10984;45.712;4.800;2023-04-25T08:37:09;16.70;99.90
21646;DHT22;10984;45.712;4.800;2023-04-25T08:39:36;16.80;99.90
21646;DHT22;10984;45.712;4.800;2023-04-25T08:42:12;16.60;99.90
21646;DHT22;10984;45.712;4.800;2023-04-25T08:44:37;16.30;99.90
21646;DHT22;10984;45.712;4.800;2023-04-25T08:47:04;16.10;99.90
21646;DHT22;10984;45.712;4.800;2023-04-25T08:49:48;15.60;99.90
21646;DHT22;10984;45.712;4.800;2023-04-25T08:52:16;15.60;99.90
21646;DHT22;10984;45.712;4.800;2023-04-25T08:54:48;15.80;99.90
21646;DHT22;10984;45.712;4.800;2023-04-25T08:57:14;15.90;99.90
21646;DHT22;10984;45.712;4.800;2023-04-25T08:59:41;15.90;99.90
21646;DHT22;10984;45.712;4.800;2023-04-25T09:02:11;16.00;99.90
21646;DHT22;10984;45.712;4.800;2023-04-25T09:04:40;16.30;99.90
21646;DHT22;10984;45.712;4.800;2023-04-25T09:07:06;16.30;99.90
21646;DHT22;10984;45.712;4.800;2023-04-25T09:09:32;16.30;99.90
21646;DHT22;10984;45.712;4.800;2023-04-25T09:11:57;16.60;99.90
21646;DHT22;10984;45.712;4.800;2023-04-25T09:14:24;16.40;99.90
21646;DHT22;10984;45.712;4.800;2023-04-25T09:17:12;16.40;99.90
21646;DHT22;10984;45.712;4.800;2023-04-25T09:19:38;16.30;99.90
21646;DHT22;10984;45.712;4.800;2023-04-25T09:22:05;16.30;99.90
21646;DHT22;10984;45.712;4.800;2023-04-25T09:27:35;16.30;99.90
21646;DHT22;10984;45.712;4.800;2023-04-25T09:30:02;16.40;99.90
21646;DHT22;10984;45.712;4.800;2023-04-25T09:32:28;16.40;99.90
21646;DHT22;10984;45.712;4.800;2023-04-25T09:34:57;16.40;99.90
21646;DHT22;10984;45.712;4.800;2023-04-25T09:40:08;16.90;99.90
21646;DHT22;10984;45.712;4.800;2023-04-25T09:42:35;17.00;99.90
21646;DHT22;10984;45.712;4.800;2023-04-25T09:45:02;17.00;99.90
21646;DHT22;10984;45.712;4.800;2023-04-25T09:47:29;17.20;99.90
21646;DHT22;10984;45.712;4.800;2023-04-25T09:49:55;17.20;99.90
21646;DHT22;10984;45.712;4.800;2023-04-25T09:52:22;17.20;99.90
21646;DHT22;10984;45.712;4.800;2023-04-25T09:54:49;17.20;99.90
21646;DHT22;10984;45.712;4.800;2023-04-25T09:57:34;17.20;99.90
21646;DHT22;10984;45.712;4.800;2023-04-25T10:00:01;17.10;99.90
21646;DHT22;10984;45.712;4.800;2023-04-25T10:02:31;17.30;99.90
21646;DHT22;10984;45.712;4.800;2023-04-25T10:04:58;17.50;99.90
21646;DHT22;10984;45.712;4.800;2023-04-25T10:07:30;17.50;99.90
21646;DHT22;10984;45.712;4.800;2023-04-25T10:12:45;17.60;99.90
21646;DHT22;10984;45.712;4.800;2023-04-25T10:15:12;17.70;99.90
21646;DHT22;10984;45.712;4.800;2023-04-25T10:17:40;17.70;99.90
21646;DHT22;10984;45.712;4.800;2023-04-25T10:20:07;17.70;99.90
21646;DHT22;10984;45.712;4.800;2023-04-25T10:22:38;17.70;99.90
21646;DHT22;10984;45.712;4.800;2023-04-25T10:25:06;17.10;99.90
21646;DHT22;10984;45.712;4.800;2023-04-25T10:27:34;16.80;99.90
21646;DHT22;10984;45.712;4.800;2023-04-25T10:30:18;16.90;99.90
21646;DHT22;10984;45.712;4.800;2023-04-25T10:32:44;17.20;99.90
21646;DHT22;10984;45.712;4.800;2023-04-25T10:35:11;17.30;99.90
21646;DHT22;10984;45.712;4.800;2023-04-25T10:37:37;17.10;99.90
21646;DHT22;10984;45.712;4.800;2023-04-25T10:40:11;17.00;99.90
21646;DHT22;10984;45.712;4.800;2023-04-25T10:42:37;16.90;99.90
21646;DHT22;10984;45.712;4.800;2023-04-25T10:45:06;17.00;99.90
21646;DHT22;10984;45.712;4.800;2023-04-25T10:47:51;16.90;99.90
21646;DHT22;10984;45.712;4.800;2023-04-25T10:50:17;16.90;99.90
21646;DHT22;10984;45.712;4.800;2023-04-25T10:52:43;16.60;99.90
21646;DHT22;10984;45.712;4.800;2023-04-25T10:55:09;16.40;99.90
21646;DHT22;10984;45.712;4.800;2023-04-25T10:57:54;16.40;99.90
21646;DHT22;10984;45.712;4.800;2023-04-25T11:00:23;16.30;99.90
21646;DHT22;10984;45.712;4.800;2023-04-25T11:02:57;16.40;99.90
21646;DHT22;10984;45.712;4.800;2023-04-25T11:05:41;16.50;99.90
21646;DHT22;10984;45.712;4.800;2023-04-25T11:08:13;16.40;99.90
21646;DHT22;10984;45.712;4.800;2023-04-25T11:10:44;16.50;99.90
21646;DHT22;10984;45.712;4.800;2023-04-25T11:13:10;16.40;99.90
21646;DHT22;10984;45.712;4.800;2023-04-25T11:15:35;16.40;99.90
21646;DHT22;10984;45.712;4.800;2023-04-25T11:18:02;16.60;99.90
21646;DHT22;10984;45.712;4.800;2023-04-25T11:20:28;16.90;99.90
21646;DHT22;10984;45.712;4.800;2023-04-25T11:22:57;17.10;99.90
21646;DHT22;10984;45.712;4.800;2023-04-25T11:25:24;17.40;99.90
21646;DHT22;10984;45.712;4.800;2023-04-25T11:28:10;17.50;99.90
21646;DHT22;10984;45.712;4.800;2023-04-25T11:30:35;17.50;99.90
21646;DHT22;10984;45.712;4.800;2023-04-25T11:33:01;17.40;99.90
21646;DHT22;10984;45.712;4.800;2023-04-25T11:35:28;17.50;99.90
21646;DHT22;10984;45.712;4.800;2023-04-25T11:37:54;17.60;99.90
21646;DHT22;10984;45.712;4.800;2023-04-25T11:40:20;17.70;99.90
21646;DHT22;10984;45.712;4.800;2023-04-25T11:42:46;17.70;99.90
21646;DHT22;10984;45.712;4.800;2023-04-25T11:45:13;17.60;99.90
21646;DHT22;10984;45.712;4.800;2023-04-25T11:47:40;17.80;99.90
21646;DHT22;10984;45.712;4.800;2023-04-25T11:50:07;17.70;99.90
21646;DHT22;10984;45.712;4.800;2023-04-25T11:52:51;17.80;99.90
21646;DHT22;10984;45.712;4.800;2023-04-25T11:55:21;17.90;99.90
21646;DHT22;10984;45.712;4.800;2023-04-25T11:57:48;17.80;99.90
21646;DHT22;10984;45.712;4.800;2023-04-25T12:00:34;17.80;99.90
21646;DHT22;10984;45.712;4.800;2023-04-25T12:02:59;17.70;99.90
21646;DHT22;10984;45.712;4.800;2023-04-25T12:05:28;17.70;99.90
21646;DHT22;10984;45.712;4.800;2023-04-25T12:07:54;17.80;99.90
21646;DHT22;10984;45.712;4.800;2023-04-25T12:10:20;17.60;99.90
21646;DHT22;10984;45.712;4.800;2023-04-25T12:12:47;17.40;99.90
21646;DHT22;10984;45.712;4.800;2023-04-25T12:15:32;17.10;99.90
21646;DHT22;10984;45.712;4.800;2023-04-25T12:17:58;17.10;99.90
21646;DHT22;10984;45.712;4.800;2023-04-25T12:20:27;16.70;99.90
21646;DHT22;10984;45.712;4.800;2023-04-25T12:22:53;16.80;99.90
21646;DHT22;10984;45.712;4.800;2023-04-25T12:25:38;17.10;99.90
21646;DHT22;10984;45.712;4.800;2023-04-25T12:28:23;17.00;99.90
21646;DHT22;10984;45.712;4.800;2023-04-25T12:31:08;17.10;99.90
21646;DHT22;10984;45.712;4.800;2023-04-25T12:33:36;17.10;99.90
21646;DHT22;10984;45.712;4.800;2023-04-25T12:36:03;16.90;99.90
21646;DHT22;10984;45.712;4.800;2023-04-25T12:38:36;17.10;99.90
21646;DHT22;10984;45.712;4.800;2023-04-25T12:41:02;17.10;99.90
21646;DHT22;10984;45.712;4.800;2023-04-25T12:43:28;17.20;99.90
21646;DHT22;10984;45.712;4.800;2023-04-25T12:45:54;17.30;99.90
21646;DHT22;10984;45.712;4.800;2023-04-25T12:48:21;17.40;99.90
21646;DHT22;10984;45.712;4.800;2023-04-25T12:50:47;17.60;99.90
21646;DHT22;10984;45.712;4.800;2023-04-25T12:53:16;17.70;99.90
21646;DHT22;10984;45.712;4.800;2023-04-25T12:55:42;17.80;99.90
21646;DHT22;10984;45.712;4.800;2023-04-25T12:58:08;17.90;99.90
21646;DHT22;10984;45.712;4.800;2023-04-25T13:00:33;17.80;99.90
21646;DHT22;10984;45.712;4.800;2023-04-25T13:02:59;17.60;99.90
21646;DHT22;10984;45.712;4.800;2023-04-25T13:05:25;17.70;99.90
21646;DHT22;10984;45.712;4.800;2023-04-25T13:07:51;17.70;99.90
21646;DHT22;10984;45.712;4.800;2023-04-25T13:10:17;17.80;99.90
21646;DHT22;10984;45.712;4.800;2023-04-25T13:12:43;17.60;99.90
21646;DHT22;10984;45.712;4.800;2023-04-25T13:15:10;17.70;99.90
21646;DHT22;10984;45.712;4.800;2023-04-25T13:17:37;17.90;99.90
21646;DHT22;10984;45.712;4.800;2023-04-25T13:20:04;18.10;99.90
21646;DHT22;10984;45.712;4.800;2023-04-25T13:22:32;18.20;99.90
21646;DHT22;10984;45.712;4.800;2023-04-25T13:24:58;18.40;99.90
21646;DHT22;10984;45.712;4.800;2023-04-25T13:27:23;18.60;99.90
21646;DHT22;10984;45.712;4.800;2023-04-25T13:29:49;18.30;99.90
21646;DHT22;10984;45.712;4.800;2023-04-25T13:32:14;18.10;99.90
21646;DHT22;10984;45.712;4.800;2023-04-25T13:34:40;17.70;99.90
21646;DHT22;10984;45.712;4.800;2023-04-25T13:37:06;17.70;99.90
21646;DHT22;10984;45.712;4.800;2023-04-25T13:39:31;17.60;99.90
21646;DHT22;10984;45.712;4.800;2023-04-25T13:41:57;17.70;99.90
21646;DHT22;10984;45.712;4.800;2023-04-25T13:44:22;17.70;99.90
21646;DHT22;10984;45.712;4.800;2023-04-25T13:46:48;17.70;99.90
21646;DHT22;10984;45.712;4.800;2023-04-25T13:49:14;17.80;99.90
21646;DHT22;10984;45.712;4.800;2023-04-25T13:51:40;17.70;99.90
21646;DHT22;10984;45.712;4.800;2023-04-25T13:54:06;17.60;99.90
21646;DHT22;10984;45.712;4.800;2023-04-25T13:56:31;17.70;99.90
21646;DHT22;10984;45.712;4.800;2023-04-25T13:58:57;17.80;99.90
21646;DHT22;10984;45.712;4.800;2023-04-25T14:01:23;17.90;99.90
21646;DHT22;10984;45.712;4.800;2023-04-25T14:03:49;18.10;99.90
21646;DHT22;10984;45.712;4.800;2023-04-25T14:06:14;18.20;99.90
21646;DHT22;10984;45.712;4.800;2023-04-25T14:08:46;18.30;99.90
21646;DHT22;10984;45.712;4.800;2023-04-25T14:11:12;18.20;99.90
21646;DHT22;10984;45.712;4.800;2023-04-25T14:13:37;18.40;99.90
21646;DHT22;10984;45.712;4.800;2023-04-25T14:16:03;18.50;99.90
21646;DHT22;10984;45.712;4.800;2023-04-25T14:18:29;18.70;99.90
21646;DHT22;10984;45.712;4.800;2023-04-25T14:20:55;18.90;99.90
21646;DHT22;10984;45.712;4.800;2023-04-25T14:23:20;18.80;99.90
21646;DHT22;10984;45.712;4.800;2023-04-25T14:25:46;18.70;99.90
21646;DHT22;10984;45.712;4.800;2023-04-25T14:28:11;18.30;99.90
21646;DHT22;10984;45.712;4.800;2023-04-25T14:30:37;18.10;99.90
21646;DHT22;10984;45.712;4.800;2023-04-25T14:33:03;18.10;99.90
21646;DHT22;10984;45.712;4.800;2023-04-25T14:35:29;18.10;99.90
21646;DHT22;10984;45.712;4.800;2023-04-25T14:37:54;18.10;99.90
21646;DHT22;10984;45.712;4.800;2023-04-25T14:40:20;17.90;99.90
21646;DHT22;10984;45.712;4.800;2023-04-25T14:42:48;17.90;99.90
21646;DHT22;10984;45.712;4.800;2023-04-25T14:45:14;18.00;99.90
21646;DHT22;10984;45.712;4.800;2023-04-25T14:47:40;18.10;99.90
21646;DHT22;10984;45.712;4.800;2023-04-25T14:50:06;18.20;99.90
21646;DHT22;10984;45.712;4.800;2023-04-25T14:52:32;18.20;99.90
21646;DHT22;10984;45.712;4.800;2023-04-25T14:54:58;18.30;99.90
21646;DHT22;10984;45.712;4.800;2023-04-25T14:57:25;18.50;99.90
21646;DHT22;10984;45.712;4.800;2023-04-25T14:59:51;18.50;99.90
21646;DHT22;10984;45.712;4.800;2023-04-25T15:02:17;18.20;99.90
21646;DHT22;10984;45.712;4.800;2023-04-25T15:04:43;17.90;99.90
21646;DHT22;10984;45.712;4.800;2023-04-25T15:07:08;17.80;99.90
21646;DHT22;10984;45.712;4.800;2023-04-25T15:09:34;17.70;99.90
21646;DHT22;10984;45.712;4.800;2023-04-25T15:15:22;17.60;99.90
21646;DHT22;10984;45.712;4.800;2023-04-25T15:17:49;17.60;99.90
21646;DHT22;10984;45.712;4.800;2023-04-25T15:20:16;17.70;99.90
21646;DHT22;10984;45.712;4.800;2023-04-25T15:22:43;17.80;99.90
21646;DHT22;10984;45.712;4.800;2023-04-25T15:25:10;17.70;99.90
21646;DHT22;10984;45.712;4.800;2023-04-25T15:27:37;17.80;99.90
21646;DHT22;10984;45.712;4.800;2023-04-25T15:30:09;17.80;99.90
21646;DHT22;10984;45.712;4.800;2023-04-25T15:32:36;17.80;99.90
21646;DHT22;10984;45.712;4.800;2023-04-25T15:35:04;17.80;99.90
21646;DHT22;10984;45.712;4.800;2023-04-25T15:37:31;17.80;99.90
21646;DHT22;10984;45.712;4.800;2023-04-25T15:40:15;17.90;99.90
21646;DHT22;10984;45.712;4.800;2023-04-25T15:45:27;17.70;99.90
21646;DHT22;10984;45.712;4.800;2023-04-25T15:47:55;17.70;99.90
21646;DHT22;10984;45.712;4.800;2023-04-25T15:50:22;17.70;99.90
21646;DHT22;10984;45.712;4.800;2023-04-25T15:52:49;17.40;99.90
21646;DHT22;10984;45.712;4.800;2023-04-25T15:55:15;17.40;99.90
21646;DHT22;10984;45.712;4.800;2023-04-25T15:57:42;17.30;99.90
21646;DHT22;10984;45.712;4.800;2023-04-25T16:00:09;17.20;99.90
21646;DHT22;10984;45.712;4.800;2023-04-25T16:02:53;17.10;99.90
21646;DHT22;10984;45.712;4.800;2023-04-25T16:05:19;17.00;99.90
21646;DHT22;10984;45.712;4.800;2023-04-25T16:07:45;16.80;99.90
21646;DHT22;10984;45.712;4.800;2023-04-25T16:10:11;16.70;99.90
21646;DHT22;10984;45.712;4.800;2023-04-25T16:12:40;16.60;99.90
21646;DHT22;10984;45.712;4.800;2023-04-25T16:15:06;16.60;99.90
21646;DHT22;10984;45.712;4.800;2023-04-25T16:17:32;16.50;99.90
21646;DHT22;10984;45.712;4.800;2023-04-25T16:19:58;16.50;99.90
21646;DHT22;10984;45.712;4.800;2023-04-25T16:22:26;16.50;99.90
21646;DHT22;10984;45.712;4.800;2023-04-25T16:24:52;16.50;99.90
21646;DHT22;10984;45.712;4.800;2023-04-25T16:27:17;16.40;99.90
21646;DHT22;10984;45.712;4.800;2023-04-25T16:29:43;16.30;99.90
21646;DHT22;10984;45.712;4.800;2023-04-25T16:32:09;16.10;99.90
21646;DHT22;10984;45.712;4.800;2023-04-25T16:34:35;16.10;99.90
21646;DHT22;10984;45.712;4.800;2023-04-25T16:37:00;16.00;99.90
21646;DHT22;10984;45.712;4.800;2023-04-25T16:39:26;15.90;99.90
21646;DHT22;10984;45.712;4.800;2023-04-25T16:41:52;16.00;99.90
21646;DHT22;10984;45.712;4.800;2023-04-25T16:44:18;15.90;99.90
21646;DHT22;10984;45.712;4.800;2023-04-25T16:46:43;15.90;99.90
21646;DHT22;10984;45.712;4.800;2023-04-25T16:49:09;15.80;99.90
21646;DHT22;10984;45.712;4.800;2023-04-25T16:51:34;15.70;99.90
21646;DHT22;10984;45.712;4.800;2023-04-25T16:54:00;15.70;99.90
21646;DHT22;10984;45.712;4.800;2023-04-25T16:56:26;15.70;99.90
21646;DHT22;10984;45.712;4.800;2023-04-25T16:58:51;15.70;99.90
21646;DHT22;10984;45.712;4.800;2023-04-25T17:01:17;15.70;99.90
21646;DHT22;10984;45.712;4.800;2023-04-25T17:03:45;15.60;99.90
21646;DHT22;10984;45.712;4.800;2023-04-25T17:06:12;15.60;99.90
21646;DHT22;10984;45.712;4.800;2023-04-25T17:08:38;15.50;99.90
21646;DHT22;10984;45.712;4.800;2023-04-25T17:11:04;15.40;99.90
21646;DHT22;10984;45.712;4.800;2023-04-25T17:13:30;15.40;99.90
21646;DHT22;10984;45.712;4.800;2023-04-25T17:15:58;15.40;99.90
21646;DHT22;10984;45.712;4.800;2023-04-25T17:18:23;15.30;99.90
21646;DHT22;10984;45.712;4.800;2023-04-25T17:20:49;15.20;99.90
21646;DHT22;10984;45.712;4.800;2023-04-25T17:23:15;15.20;99.90
21646;DHT22;10984;45.712;4.800;2023-04-25T17:25:40;15.20;99.90
21646;DHT22;10984;45.712;4.800;2023-04-25T17:28:06;15.20;99.90
21646;DHT22;10984;45.712;4.800;2023-04-25T17:30:32;15.20;99.90
21646;DHT22;10984;45.712;4.800;2023-04-25T17:32:58;15.10;99.90
21646;DHT22;10984;45.712;4.800;2023-04-25T17:35:24;15.00;99.90
21646;DHT22;10984;45.712;4.800;2023-04-25T17:37:50;15.00;99.90
21646;DHT22;10984;45.712;4.800;2023-04-25T17:40:18;15.00;99.90
21646;DHT22;10984;45.712;4.800;2023-04-25T17:42:44;14.90;99.90
21646;DHT22;10984;45.712;4.800;2023-04-25T17:45:10;14.90;99.90
21646;DHT22;10984;45.712;4.800;2023-04-25T17:47:37;15.00;99.90
21646;DHT22;10984;45.712;4.800;2023-04-25T17:50:07;14.90;99.90
21646;DHT22;10984;45.712;4.800;2023-04-25T17:52:33;14.80;99.90
21646;DHT22;10984;45.712;4.800;2023-04-25T17:54:59;14.70;99.90
21646;DHT22;10984;45.712;4.800;2023-04-25T17:57:25;14.70;99.90
21646;DHT22;10984;45.712;4.800;2023-04-25T17:59:52;14.70;99.90
21646;DHT22;10984;45.712;4.800;2023-04-25T18:02:18;14.70;99.90
21646;DHT22;10984;45.712;4.800;2023-04-25T18:04:44;14.60;99.90
21646;DHT22;10984;45.712;4.800;2023-04-25T18:07:10;14.50;99.90
21646;DHT22;10984;45.712;4.800;2023-04-25T18:09:36;14.50;99.90
21646;DHT22;10984;45.712;4.800;2023-04-25T18:12:02;14.50;99.90
21646;DHT22;10984;45.712;4.800;2023-04-25T18:14:28;14.40;99.90
21646;DHT22;10984;45.712;4.800;2023-04-25T18:16:54;14.30;99.90
21646;DHT22;10984;45.712;4.800;2023-04-25T18:19:21;14.30;99.90
21646;DHT22;10984;45.712;4.800;2023-04-25T18:21:52;14.20;99.90
21646;DHT22;10984;45.712;4.800;2023-04-25T18:24:21;14.10;99.90
21646;DHT22;10984;45.712;4.800;2023-04-25T18:26:49;14.10;99.90
21646;DHT22;10984;45.712;4.800;2023-04-25T18:29:16;14.10;99.90
21646;DHT22;10984;45.712;4.800;2023-04-25T18:31:43;14.00;99.90
21646;DHT22;10984;45.712;4.800;2023-04-25T18:34:09;14.00;99.90
21646;DHT22;10984;45.712;4.800;2023-04-25T18:36:36;14.00;99.90
21646;DHT22;10984;45.712;4.800;2023-04-25T18:39:03;13.90;99.90
21646;DHT22;10984;45.712;4.800;2023-04-25T18:41:31;13.80;99.90
21646;DHT22;10984;45.712;4.800;2023-04-25T18:43:57;13.80;99.90
21646;DHT22;10984;45.712;4.800;2023-04-25T18:46:27;13.70;99.90
21646;DHT22;10984;45.712;4.800;2023-04-25T18:48:53;13.70;99.90
21646;DHT22;10984;45.712;4.800;2023-04-25T18:51:20;13.70;99.90
21646;DHT22;10984;45.712;4.800;2023-04-25T18:53:47;13.60;99.90
21646;DHT22;10984;45.712;4.800;2023-04-25T18:56:13;13.60;99.90
21646;DHT22;10984;45.712;4.800;2023-04-25T18:58:40;13.40;99.90
21646;DHT22;10984;45.712;4.800;2023-04-25T19:01:06;13.30;99.90
21646;DHT22;10984;45.712;4.800;2023-04-25T19:03:32;13.30;99.90
21646;DHT22;10984;45.712;4.800;2023-04-25T19:05:58;13.30;99.90
21646;DHT22;10984;45.712;4.800;2023-04-25T19:08:24;13.30;99.90
21646;DHT22;10984;45.712;4.800;2023-04-25T19:10:50;13.20;99.90
21646;DHT22;10984;45.712;4.800;2023-04-25T19:13:18;13.20;99.90
21646;DHT22;10984;45.712;4.800;2023-04-25T19:15:45;13.20;99.90
21646;DHT22;10984;45.712;4.800;2023-04-25T19:18:11;13.10;99.90
21646;DHT22;10984;45.712;4.800;2023-04-25T19:20:37;13.10;99.90
21646;DHT22;10984;45.712;4.800;2023-04-25T19:23:06;13.10;99.90
21646;DHT22;10984;45.712;4.800;2023-04-25T19:25:33;13.00;99.90
21646;DHT22;10984;45.712;4.800;2023-04-25T19:27:59;13.00;99.90
21646;DHT22;10984;45.712;4.800;2023-04-25T19:30:26;13.00;99.90
21646;DHT22;10984;45.712;4.800;2023-04-25T19:32:53;12.90;99.90
21646;DHT22;10984;45.712;4.800;2023-04-25T19:35:21;12.90;99.90
21646;DHT22;10984;45.712;4.800;2023-04-25T19:37:46;12.80;99.90
21646;DHT22;10984;45.712;4.800;2023-04-25T19:40:13;12.80;99.90
21646;DHT22;10984;45.712;4.800;2023-04-25T19:42:40;12.70;99.90
21646;DHT22;10984;45.712;4.800;2023-04-25T19:45:06;12.50;99.90
21646;DHT22;10984;45.712;4.800;2023-04-25T19:47:32;12.30;99.90
21646;DHT22;10984;45.712;4.800;2023-04-25T19:49:57;12.20;99.90
21646;DHT22;10984;45.712;4.800;2023-04-25T19:52:23;12.00;99.90
21646;DHT22;10984;45.712;4.800;2023-04-25T19:54:49;11.90;99.90
21646;DHT22;10984;45.712;4.800;2023-04-25T19:57:14;11.80;99.90
21646;DHT22;10984;45.712;4.800;2023-04-25T19:59:40;11.80;99.90
21646;DHT22;10984;45.712;4.800;2023-04-25T20:02:06;11.70;99.90
21646;DHT22;10984;45.712;4.800;2023-04-25T20:04:34;11.60;99.90
21646;DHT22;10984;45.712;4.800;2023-04-25T20:07:00;11.50;99.90
21646;DHT22;10984;45.712;4.800;2023-04-25T20:09:26;11.40;1.00
21646;DHT22;10984;45.712;4.800;2023-04-25T20:11:52;11.40;1.00
21646;DHT22;10984;45.712;4.800;2023-04-25T20:14:18;11.30;1.00
21646;DHT22;10984;45.712;4.800;2023-04-25T20:16:44;11.20;1.00
21646;DHT22;10984;45.712;4.800;2023-04-25T20:19:11;11.20;1.00
21646;DHT22;10984;45.712;4.800;2023-04-25T20:21:36;11.00;1.00
21646;DHT22;10984;45.712;4.800;2023-04-25T20:24:02;11.00;1.00
21646;DHT22;10984;45.712;4.800;2023-04-25T20:26:28;10.90;1.00
21646;DHT22;10984;45.712;4.800;2023-04-25T20:28:58;10.80;1.00
21646;DHT22;10984;45.712;4.800;2023-04-25T20:31:24;10.80;1.00
21646;DHT22;10984;45.712;4.800;2023-04-25T20:33:50;10.70;1.00
21646;DHT22;10984;45.712;4.800;2023-04-25T20:36:15;10.60;1.00
21646;DHT22;10984;45.712;4.800;2023-04-25T20:38:41;10.60;1.00
21646;DHT22;10984;45.712;4.800;2023-04-25T20:41:07;10.60;1.00
21646;DHT22;10984;45.712;4.800;2023-04-25T20:43:32;10.50;1.00
21646;DHT22;10984;45.712;4.800;2023-04-25T20:45:58;10.50;1.00
21646;DHT22;10984;45.712;4.800;2023-04-25T20:48:25;10.40;1.00
21646;DHT22;10984;45.712;4.800;2023-04-25T20:50:50;10.40;1.00
21646;DHT22;10984;45.712;4.800;2023-04-25T20:53:16;10.40;1.00
21646;DHT22;10984;45.712;4.800;2023-04-25T20:55:42;10.30;1.00